sensor_id;sensor_type;location;lat;lon;timestamp;P1;durP1;ratioP1;P2;durP2;ratioP2
44985;SDS011;30721;49.380;7.736;2023-12-07T00:01:00;21.58;;;10.70;;
44985;SDS011;30721;49.380;7.736;2023-12-07T00:03:25;20.95;;;11.32;;
44985;SDS011;30721;49.380;7.736;2023-12-07T00:05:51;22.80;;;11.55;;
44985;SDS011;30721;49.380;7.736;2023-12-07T00:08:16;24.13;;;12.60;;
44985;SDS011;30721;49.380;7.736;2023-12-07T00:10:42;24.63;;;12.45;;
44985;SDS011;30721;49.380;7.736;2023-12-07T00:13:07;23.10;;;12.77;;
44985;SDS011;30721;49.380;7.736;2023-12-07T00:15:32;19.83;;;11.63;;
44985;SDS011;30721;49.380;7.736;2023-12-07T00:17:58;21.58;;;11.50;;
44985;SDS011;30721;49.380;7.736;2023-12-07T00:23:09;20.38;;;11.10;;
44985;SDS011;30721;49.380;7.736;2023-12-07T00:25:34;22.00;;;11.65;;
44985;SDS011;30721;49.380;7.736;2023-12-07T00:27:59;23.40;;;10.82;;
44985;SDS011;30721;49.380;7.736;2023-12-07T00:30:25;20.63;;;11.52;;
44985;SDS011;30721;49.380;7.736;2023-12-07T00:32:50;19.77;;;10.98;;
44985;SDS011;30721;49.380;7.736;2023-12-07T00:35:16;24.52;;;11.77;;
44985;SDS011;30721;49.380;7.736;2023-12-07T00:37:41;21.33;;;11.48;;
44985;SDS011;30721;49.380;7.736;2023-12-07T00:40:07;20.52;;;11.00;;
44985;SDS011;30721;49.380;7.736;2023-12-07T00:42:33;18.67;;;11.35;;
44985;SDS011;30721;49.380;7.736;2023-12-07T00:44:59;24.17;;;11.38;;
44985;SDS011;30721;49.380;7.736;2023-12-07T00:47:24;20.30;;;11.25;;
44985;SDS011;30721;49.380;7.736;2023-12-07T00:49:50;24.35;;;12.32;;
44985;SDS011;30721;49.380;7.736;2023-12-07T00:52:16;20.50;;;11.35;;
44985;SDS011;30721;49.380;7.736;2023-12-07T00:54:41;19.75;;;11.45;;
44985;SDS011;30721;49.380;7.736;2023-12-07T00:57:06;22.60;;;11.90;;
44985;SDS011;30721;49.380;7.736;2023-12-07T00:59:32;21.13;;;10.98;;
44985;SDS011;30721;49.380;7.736;2023-12-07T01:02:02;19.48;;;10.23;;
44985;SDS011;30721;49.380;7.736;2023-12-07T01:04:28;19.70;;;11.23;;
44985;SDS011;30721;49.380;7.736;2023-12-07T01:06:54;23.13;;;11.30;;
44985;SDS011;30721;49.380;7.736;2023-12-07T01:09:20;22.38;;;11.38;;
44985;SDS011;30721;49.380;7.736;2023-12-07T01:11:47;21.77;;;11.40;;
44985;SDS011;30721;49.380;7.736;2023-12-07T01:14:12;25.08;;;11.55;;
44985;SDS011;30721;49.380;7.736;2023-12-07T01:16:38;19.77;;;10.27;;
44985;SDS011;30721;49.380;7.736;2023-12-07T01:19:03;22.83;;;12.05;;
44985;SDS011;30721;49.380;7.736;2023-12-07T01:21:28;22.50;;;11.63;;
44985;SDS011;30721;49.380;7.736;2023-12-07T01:23:54;22.30;;;11.10;;
44985;SDS011;30721;49.380;7.736;2023-12-07T01:26:19;22.60;;;11.35;;
44985;SDS011;30721;49.380;7.736;2023-12-07T01:28:45;21.75;;;10.90;;
44985;SDS011;30721;49.380;7.736;2023-12-07T01:31:10;19.10;;;10.20;;
44985;SDS011;30721;49.380;7.736;2023-12-07T01:33:35;17.10;;;9.95;;
44985;SDS011;30721;49.380;7.736;2023-12-07T01:36:01;20.83;;;11.18;;
44985;SDS011;30721;49.380;7.736;2023-12-07T01:38:26;19.23;;;10.45;;
44985;SDS011;30721;49.380;7.736;2023-12-07T01:40:51;17.02;;;8.90;;
44985;SDS011;30721;49.380;7.736;2023-12-07T01:43:17;20.23;;;10.52;;
44985;SDS011;30721;49.380;7.736;2023-12-07T01:45:42;20.05;;;11.30;;
44985;SDS011;30721;49.380;7.736;2023-12-07T01:48:08;20.58;;;10.77;;
44985;SDS011;30721;49.380;7.736;2023-12-07T01:50:33;19.52;;;9.88;;
44985;SDS011;30721;49.380;7.736;2023-12-07T01:53:02;17.75;;;9.93;;
44985;SDS011;30721;49.380;7.736;2023-12-07T01:55:28;18.45;;;9.43;;
44985;SDS011;30721;49.380;7.736;2023-12-07T01:57:55;15.23;;;9.20;;
44985;SDS011;30721;49.380;7.736;2023-12-07T02:00:20;17.13;;;9.63;;
44985;SDS011;30721;49.380;7.736;2023-12-07T02:02:46;17.40;;;9.15;;
44985;SDS011;30721;49.380;7.736;2023-12-07T02:05:12;17.33;;;9.75;;
44985;SDS011;30721;49.380;7.736;2023-12-07T02:07:39;17.65;;;9.60;;
44985;SDS011;30721;49.380;7.736;2023-12-07T02:10:06;20.58;;;9.20;;
44985;SDS011;30721;49.380;7.736;2023-12-07T02:12:31;18.73;;;10.23;;
44985;SDS011;30721;49.380;7.736;2023-12-07T02:14:57;15.20;;;8.88;;
44985;SDS011;30721;49.380;7.736;2023-12-07T02:17:37;17.17;;;9.25;;
44985;SDS011;30721;49.380;7.736;2023-12-07T02:20:29;17.73;;;8.27;;
44985;SDS011;30721;49.380;7.736;2023-12-07T02:23:01;17.30;;;9.35;;
44985;SDS011;30721;49.380;7.736;2023-12-07T02:25:40;15.63;;;8.75;;
44985;SDS011;30721;49.380;7.736;2023-12-07T02:28:10;16.40;;;8.68;;
44985;SDS011;30721;49.380;7.736;2023-12-07T02:30:35;15.68;;;8.73;;
44985;SDS011;30721;49.380;7.736;2023-12-07T02:33:00;15.73;;;8.77;;
44985;SDS011;30721;49.380;7.736;2023-12-07T02:35:26;16.15;;;9.18;;
44985;SDS011;30721;49.380;7.736;2023-12-07T02:37:52;15.25;;;8.98;;
44985;SDS011;30721;49.380;7.736;2023-12-07T02:40:20;18.20;;;9.07;;
44985;SDS011;30721;49.380;7.736;2023-12-07T02:42:47;16.33;;;8.63;;
44985;SDS011;30721;49.380;7.736;2023-12-07T02:45:13;17.30;;;9.25;;
44985;SDS011;30721;49.380;7.736;2023-12-07T02:47:39;16.10;;;9.55;;
44985;SDS011;30721;49.380;7.736;2023-12-07T02:50:08;17.65;;;10.35;;
44985;SDS011;30721;49.380;7.736;2023-12-07T02:52:35;17.25;;;9.68;;
44985;SDS011;30721;49.380;7.736;2023-12-07T02:55:00;18.45;;;9.85;;
44985;SDS011;30721;49.380;7.736;2023-12-07T02:57:26;16.98;;;9.63;;
44985;SDS011;30721;49.380;7.736;2023-12-07T02:59:51;16.92;;;9.38;;
44985;SDS011;30721;49.380;7.736;2023-12-07T03:02:17;19.80;;;9.38;;
44985;SDS011;30721;49.380;7.736;2023-12-07T03:04:42;17.90;;;9.50;;
44985;SDS011;30721;49.380;7.736;2023-12-07T03:07:07;19.05;;;9.85;;
44985;SDS011;30721;49.380;7.736;2023-12-07T03:09:33;17.92;;;9.75;;
44985;SDS011;30721;49.380;7.736;2023-12-07T03:11:58;19.50;;;10.18;;
44985;SDS011;30721;49.380;7.736;2023-12-07T03:14:24;16.13;;;9.30;;
44985;SDS011;30721;49.380;7.736;2023-12-07T03:16:49;16.85;;;9.02;;
44985;SDS011;30721;49.380;7.736;2023-12-07T03:19:14;18.98;;;9.90;;
44985;SDS011;30721;49.380;7.736;2023-12-07T03:21:41;17.05;;;9.02;;
44985;SDS011;30721;49.380;7.736;2023-12-07T03:24:08;16.10;;;9.38;;
44985;SDS011;30721;49.380;7.736;2023-12-07T03:26:33;20.35;;;9.77;;
44985;SDS011;30721;49.380;7.736;2023-12-07T03:28:59;16.80;;;9.35;;
44985;SDS011;30721;49.380;7.736;2023-12-07T03:31:24;16.50;;;9.77;;
44985;SDS011;30721;49.380;7.736;2023-12-07T03:33:50;20.23;;;10.82;;
44985;SDS011;30721;49.380;7.736;2023-12-07T03:36:15;19.45;;;10.60;;
44985;SDS011;30721;49.380;7.736;2023-12-07T03:38:41;21.02;;;10.38;;
44985;SDS011;30721;49.380;7.736;2023-12-07T03:41:07;17.92;;;9.63;;
44985;SDS011;30721;49.380;7.736;2023-12-07T03:43:33;21.13;;;10.68;;
44985;SDS011;30721;49.380;7.736;2023-12-07T03:45:58;21.00;;;11.05;;
44985;SDS011;30721;49.380;7.736;2023-12-07T03:48:23;16.98;;;9.43;;
44985;SDS011;30721;49.380;7.736;2023-12-07T03:50:49;19.45;;;9.90;;
44985;SDS011;30721;49.380;7.736;2023-12-07T03:53:14;18.75;;;9.40;;
44985;SDS011;30721;49.380;7.736;2023-12-07T03:55:40;19.42;;;10.13;;
44985;SDS011;30721;49.380;7.736;2023-12-07T03:58:06;18.40;;;10.55;;
44985;SDS011;30721;49.380;7.736;2023-12-07T04:00:31;18.67;;;10.35;;
44985;SDS011;30721;49.380;7.736;2023-12-07T04:02:57;23.05;;;10.05;;
44985;SDS011;30721;49.380;7.736;2023-12-07T04:05:23;20.50;;;10.73;;
44985;SDS011;30721;49.380;7.736;2023-12-07T04:07:48;15.00;;;8.65;;
44985;SDS011;30721;49.380;7.736;2023-12-07T04:10:14;19.70;;;9.07;;
44985;SDS011;30721;49.380;7.736;2023-12-07T04:12:42;16.98;;;8.20;;
44985;SDS011;30721;49.380;7.736;2023-12-07T04:15:07;19.42;;;8.95;;
44985;SDS011;30721;49.380;7.736;2023-12-07T04:17:33;17.42;;;7.93;;
44985;SDS011;30721;49.380;7.736;2023-12-07T04:19:58;17.17;;;8.85;;
44985;SDS011;30721;49.380;7.736;2023-12-07T04:22:24;15.75;;;8.10;;
44985;SDS011;30721;49.380;7.736;2023-12-07T04:24:49;15.32;;;8.43;;
44985;SDS011;30721;49.380;7.736;2023-12-07T04:27:15;16.25;;;8.25;;
44985;SDS011;30721;49.380;7.736;2023-12-07T04:29:40;19.33;;;9.35;;
44985;SDS011;30721;49.380;7.736;2023-12-07T04:32:06;18.25;;;9.30;;
44985;SDS011;30721;49.380;7.736;2023-12-07T04:34:32;17.88;;;9.25;;
44985;SDS011;30721;49.380;7.736;2023-12-07T04:36:58;17.17;;;8.75;;
44985;SDS011;30721;49.380;7.736;2023-12-07T04:39:23;15.20;;;8.57;;
44985;SDS011;30721;49.380;7.736;2023-12-07T04:41:49;19.23;;;9.32;;
44985;SDS011;30721;49.380;7.736;2023-12-07T04:44:14;19.85;;;10.00;;
44985;SDS011;30721;49.380;7.736;2023-12-07T04:46:40;23.60;;;9.60;;
44985;SDS011;30721;49.380;7.736;2023-12-07T04:49:06;14.32;;;8.90;;
44985;SDS011;30721;49.380;7.736;2023-12-07T04:51:31;15.63;;;7.32;;
44985;SDS011;30721;49.380;7.736;2023-12-07T04:53:56;15.50;;;7.70;;
44985;SDS011;30721;49.380;7.736;2023-12-07T04:56:22;14.80;;;7.32;;
44985;SDS011;30721;49.380;7.736;2023-12-07T04:58:47;13.85;;;8.20;;
44985;SDS011;30721;49.380;7.736;2023-12-07T05:01:12;14.75;;;7.65;;
44985;SDS011;30721;49.380;7.736;2023-12-07T05:03:38;29.02;;;8.55;;
44985;SDS011;30721;49.380;7.736;2023-12-07T05:06:03;16.63;;;8.27;;
44985;SDS011;30721;49.380;7.736;2023-12-07T05:08:29;12.18;;;7.22;;
44985;SDS011;30721;49.380;7.736;2023-12-07T05:10:54;14.10;;;7.30;;
44985;SDS011;30721;49.380;7.736;2023-12-07T05:13:20;22.25;;;7.75;;
44985;SDS011;30721;49.380;7.736;2023-12-07T05:15:45;12.70;;;6.93;;
44985;SDS011;30721;49.380;7.736;2023-12-07T05:18:12;11.75;;;6.00;;
44985;SDS011;30721;49.380;7.736;2023-12-07T05:20:37;30.13;;;8.13;;
44985;SDS011;30721;49.380;7.736;2023-12-07T05:23:04;21.73;;;7.40;;
44985;SDS011;30721;49.380;7.736;2023-12-07T05:25:30;11.68;;;6.28;;
44985;SDS011;30721;49.380;7.736;2023-12-07T05:27:57;11.43;;;5.75;;
44985;SDS011;30721;49.380;7.736;2023-12-07T05:30:23;14.88;;;6.82;;
44985;SDS011;30721;49.380;7.736;2023-12-07T05:32:48;14.45;;;6.18;;
44985;SDS011;30721;49.380;7.736;2023-12-07T05:35:13;9.35;;;5.78;;
44985;SDS011;30721;49.380;7.736;2023-12-07T05:37:39;15.00;;;6.82;;
44985;SDS011;30721;49.380;7.736;2023-12-07T05:40:04;14.75;;;6.90;;
44985;SDS011;30721;49.380;7.736;2023-12-07T05:42:31;9.77;;;5.35;;
44985;SDS011;30721;49.380;7.736;2023-12-07T05:44:57;10.88;;;5.68;;
44985;SDS011;30721;49.380;7.736;2023-12-07T05:47:23;11.07;;;6.10;;
44985;SDS011;30721;49.380;7.736;2023-12-07T05:49:48;10.38;;;5.60;;
44985;SDS011;30721;49.380;7.736;2023-12-07T05:52:13;9.77;;;5.47;;
44985;SDS011;30721;49.380;7.736;2023-12-07T05:54:39;12.25;;;6.53;;
44985;SDS011;30721;49.380;7.736;2023-12-07T05:57:07;10.63;;;5.55;;
44985;SDS011;30721;49.380;7.736;2023-12-07T05:59:36;13.15;;;5.40;;
44985;SDS011;30721;49.380;7.736;2023-12-07T06:02:03;15.40;;;5.53;;
44985;SDS011;30721;49.380;7.736;2023-12-07T06:04:29;11.43;;;6.18;;
44985;SDS011;30721;49.380;7.736;2023-12-07T06:06:55;8.02;;;4.47;;
44985;SDS011;30721;49.380;7.736;2023-12-07T06:09:21;9.27;;;5.32;;
44985;SDS011;30721;49.380;7.736;2023-12-07T06:11:46;16.08;;;6.40;;
44985;SDS011;30721;49.380;7.736;2023-12-07T06:14:11;8.55;;;4.78;;
44985;SDS011;30721;49.380;7.736;2023-12-07T06:16:37;10.75;;;5.22;;
44985;SDS011;30721;49.380;7.736;2023-12-07T06:19:02;11.80;;;5.72;;
44985;SDS011;30721;49.380;7.736;2023-12-07T06:21:28;11.98;;;5.93;;
44985;SDS011;30721;49.380;7.736;2023-12-07T06:23:55;12.40;;;6.18;;
44985;SDS011;30721;49.380;7.736;2023-12-07T06:26:21;14.38;;;6.05;;
44985;SDS011;30721;49.380;7.736;2023-12-07T06:28:47;24.38;;;5.88;;
44985;SDS011;30721;49.380;7.736;2023-12-07T06:31:12;12.98;;;5.78;;
44985;SDS011;30721;49.380;7.736;2023-12-07T06:33:40;9.07;;;5.10;;
44985;SDS011;30721;49.380;7.736;2023-12-07T06:36:05;23.30;;;6.85;;
44985;SDS011;30721;49.380;7.736;2023-12-07T06:38:31;17.75;;;5.78;;
44985;SDS011;30721;49.380;7.736;2023-12-07T06:40:56;35.95;;;7.05;;
44985;SDS011;30721;49.380;7.736;2023-12-07T06:43:22;12.23;;;5.53;;
44985;SDS011;30721;49.380;7.736;2023-12-07T06:45:47;12.73;;;5.60;;
44985;SDS011;30721;49.380;7.736;2023-12-07T06:48:13;16.10;;;5.80;;
44985;SDS011;30721;49.380;7.736;2023-12-07T06:50:39;27.83;;;6.97;;
44985;SDS011;30721;49.380;7.736;2023-12-07T06:53:04;11.75;;;5.13;;
44985;SDS011;30721;49.380;7.736;2023-12-07T06:55:30;17.48;;;5.43;;
44985;SDS011;30721;49.380;7.736;2023-12-07T06:57:55;15.60;;;5.55;;
44985;SDS011;30721;49.380;7.736;2023-12-07T07:00:21;9.95;;;5.43;;
44985;SDS011;30721;49.380;7.736;2023-12-07T07:02:46;9.10;;;4.85;;
44985;SDS011;30721;49.380;7.736;2023-12-07T07:05:12;10.60;;;5.25;;
44985;SDS011;30721;49.380;7.736;2023-12-07T07:07:37;9.50;;;5.22;;
44985;SDS011;30721;49.380;7.736;2023-12-07T07:10:03;13.98;;;7.03;;
44985;SDS011;30721;49.380;7.736;2023-12-07T07:12:29;12.23;;;6.05;;
44985;SDS011;30721;49.380;7.736;2023-12-07T07:14:55;12.25;;;5.47;;
44985;SDS011;30721;49.380;7.736;2023-12-07T07:17:21;12.20;;;6.28;;
44985;SDS011;30721;49.380;7.736;2023-12-07T07:19:46;11.60;;;6.40;;
44985;SDS011;30721;49.380;7.736;2023-12-07T07:22:11;12.60;;;5.80;;
44985;SDS011;30721;49.380;7.736;2023-12-07T07:24:37;10.65;;;4.78;;
44985;SDS011;30721;49.380;7.736;2023-12-07T07:27:02;26.05;;;5.45;;
44985;SDS011;30721;49.380;7.736;2023-12-07T07:29:28;23.70;;;5.35;;
44985;SDS011;30721;49.380;7.736;2023-12-07T07:31:54;17.67;;;5.63;;
44985;SDS011;30721;49.380;7.736;2023-12-07T07:34:20;10.23;;;5.18;;
44985;SDS011;30721;49.380;7.736;2023-12-07T07:36:46;12.18;;;5.15;;
44985;SDS011;30721;49.380;7.736;2023-12-07T07:39:11;11.05;;;5.40;;
44985;SDS011;30721;49.380;7.736;2023-12-07T07:41:38;9.82;;;4.70;;
44985;SDS011;30721;49.380;7.736;2023-12-07T07:44:04;10.35;;;5.20;;
44985;SDS011;30721;49.380;7.736;2023-12-07T07:46:29;19.67;;;6.80;;
44985;SDS011;30721;49.380;7.736;2023-12-07T07:48:55;20.48;;;6.15;;
44985;SDS011;30721;49.380;7.736;2023-12-07T07:51:20;10.90;;;5.38;;
44985;SDS011;30721;49.380;7.736;2023-12-07T07:53:45;11.05;;;4.90;;
44985;SDS011;30721;49.380;7.736;2023-12-07T07:56:11;7.10;;;3.75;;
44985;SDS011;30721;49.380;7.736;2023-12-07T07:58:36;22.52;;;6.82;;
44985;SDS011;30721;49.380;7.736;2023-12-07T08:01:01;13.90;;;5.18;;
44985;SDS011;30721;49.380;7.736;2023-12-07T08:03:27;15.73;;;5.32;;
44985;SDS011;30721;49.380;7.736;2023-12-07T08:05:52;7.75;;;4.55;;
44985;SDS011;30721;49.380;7.736;2023-12-07T08:08:18;8.18;;;4.00;;
44985;SDS011;30721;49.380;7.736;2023-12-07T08:10:43;7.53;;;4.03;;
44985;SDS011;30721;49.380;7.736;2023-12-07T08:13:08;8.52;;;4.53;;
44985;SDS011;30721;49.380;7.736;2023-12-07T08:15:34;10.10;;;4.88;;
44985;SDS011;30721;49.380;7.736;2023-12-07T08:18:00;9.45;;;4.47;;
44985;SDS011;30721;49.380;7.736;2023-12-07T08:20:26;8.82;;;4.60;;
44985;SDS011;30721;49.380;7.736;2023-12-07T08:22:52;9.25;;;4.85;;
44985;SDS011;30721;49.380;7.736;2023-12-07T08:25:17;7.38;;;4.10;;
44985;SDS011;30721;49.380;7.736;2023-12-07T08:27:43;18.30;;;5.25;;
44985;SDS011;30721;49.380;7.736;2023-12-07T08:30:12;8.63;;;4.63;;
44985;SDS011;30721;49.380;7.736;2023-12-07T08:32:38;7.80;;;4.00;;
44985;SDS011;30721;49.380;7.736;2023-12-07T08:35:04;13.05;;;4.88;;
44985;SDS011;30721;49.380;7.736;2023-12-07T08:37:30;7.18;;;4.32;;
44985;SDS011;30721;49.380;7.736;2023-12-07T08:39:56;9.43;;;4.80;;
44985;SDS011;30721;49.380;7.736;2023-12-07T08:42:22;6.75;;;3.92;;
44985;SDS011;30721;49.380;7.736;2023-12-07T08:44:47;12.90;;;4.35;;
44985;SDS011;30721;49.380;7.736;2023-12-07T08:47:12;18.02;;;4.90;;
44985;SDS011;30721;49.380;7.736;2023-12-07T08:49:38;9.02;;;4.57;;
44985;SDS011;30721;49.380;7.736;2023-12-07T08:52:03;9.43;;;4.80;;
44985;SDS011;30721;49.380;7.736;2023-12-07T08:54:29;16.13;;;4.82;;
44985;SDS011;30721;49.380;7.736;2023-12-07T08:56:54;7.43;;;4.35;;
44985;SDS011;30721;49.380;7.736;2023-12-07T08:59:20;8.40;;;4.68;;
44985;SDS011;30721;49.380;7.736;2023-12-07T09:01:45;11.85;;;5.00;;
44985;SDS011;30721;49.380;7.736;2023-12-07T09:04:11;8.68;;;5.13;;
44985;SDS011;30721;49.380;7.736;2023-12-07T09:06:37;8.20;;;4.30;;
44985;SDS011;30721;49.380;7.736;2023-12-07T09:09:03;8.68;;;4.07;;
44985;SDS011;30721;49.380;7.736;2023-12-07T09:11:31;7.38;;;4.03;;
44985;SDS011;30721;49.380;7.736;2023-12-07T09:13:57;13.57;;;4.40;;
44985;SDS011;30721;49.380;7.736;2023-12-07T09:16:22;6.72;;;4.10;;
44985;SDS011;30721;49.380;7.736;2023-12-07T09:18:48;7.43;;;4.18;;
44985;SDS011;30721;49.380;7.736;2023-12-07T09:21:16;13.88;;;3.90;;
44985;SDS011;30721;49.380;7.736;2023-12-07T09:23:41;7.93;;;3.90;;
44985;SDS011;30721;49.380;7.736;2023-12-07T09:26:07;6.97;;;3.97;;
44985;SDS011;30721;49.380;7.736;2023-12-07T09:28:33;7.80;;;3.97;;
44985;SDS011;30721;49.380;7.736;2023-12-07T09:30:58;6.53;;;3.72;;
44985;SDS011;30721;49.380;7.736;2023-12-07T09:33:24;7.63;;;4.05;;
44985;SDS011;30721;49.380;7.736;2023-12-07T09:35:49;7.63;;;4.45;;
44985;SDS011;30721;49.380;7.736;2023-12-07T09:38:15;8.40;;;4.22;;
44985;SDS011;30721;49.380;7.736;2023-12-07T09:40:40;8.32;;;4.45;;
44985;SDS011;30721;49.380;7.736;2023-12-07T09:43:06;7.80;;;4.28;;
44985;SDS011;30721;49.380;7.736;2023-12-07T09:45:31;10.18;;;5.28;;
44985;SDS011;30721;49.380;7.736;2023-12-07T09:47:57;10.15;;;5.20;;
44985;SDS011;30721;49.380;7.736;2023-12-07T09:50:23;12.70;;;6.43;;
44985;SDS011;30721;49.380;7.736;2023-12-07T09:52:50;12.70;;;5.95;;
44985;SDS011;30721;49.380;7.736;2023-12-07T09:55:16;9.50;;;5.53;;
44985;SDS011;30721;49.380;7.736;2023-12-07T09:57:42;10.63;;;4.90;;
44985;SDS011;30721;49.380;7.736;2023-12-07T10:00:08;10.43;;;5.35;;
44985;SDS011;30721;49.380;7.736;2023-12-07T10:02:39;11.30;;;5.65;;
44985;SDS011;30721;49.380;7.736;2023-12-07T10:05:09;9.98;;;6.32;;
44985;SDS011;30721;49.380;7.736;2023-12-07T10:07:36;8.73;;;5.13;;
44985;SDS011;30721;49.380;7.736;2023-12-07T10:10:04;10.40;;;5.75;;
44985;SDS011;30721;49.380;7.736;2023-12-07T10:12:31;12.20;;;7.07;;
44985;SDS011;30721;49.380;7.736;2023-12-07T10:14:58;11.05;;;6.03;;
44985;SDS011;30721;49.380;7.736;2023-12-07T10:17:24;12.02;;;6.85;;
44985;SDS011;30721;49.380;7.736;2023-12-07T10:22:49;14.35;;;7.15;;
44985;SDS011;30721;49.380;7.736;2023-12-07T10:25:26;15.15;;;8.07;;
44985;SDS011;30721;49.380;7.736;2023-12-07T10:27:51;11.30;;;6.82;;
44985;SDS011;30721;49.380;7.736;2023-12-07T10:30:16;12.85;;;7.20;;
44985;SDS011;30721;49.380;7.736;2023-12-07T10:32:46;11.65;;;7.68;;
44985;SDS011;30721;49.380;7.736;2023-12-07T10:35:11;10.70;;;6.20;;
44985;SDS011;30721;49.380;7.736;2023-12-07T10:37:36;9.80;;;5.72;;
44985;SDS011;30721;49.380;7.736;2023-12-07T10:40:02;11.45;;;6.38;;
44985;SDS011;30721;49.380;7.736;2023-12-07T10:42:29;11.50;;;5.80;;
44985;SDS011;30721;49.380;7.736;2023-12-07T10:44:57;11.32;;;5.75;;
44985;SDS011;30721;49.380;7.736;2023-12-07T10:47:32;10.18;;;6.00;;
44985;SDS011;30721;49.380;7.736;2023-12-07T10:49:59;9.20;;;4.93;;
44985;SDS011;30721;49.380;7.736;2023-12-07T10:52:25;9.18;;;4.90;;
44985;SDS011;30721;49.380;7.736;2023-12-07T10:55:10;8.07;;;5.00;;
44985;SDS011;30721;49.380;7.736;2023-12-07T10:57:40;7.78;;;4.65;;
44985;SDS011;30721;49.380;7.736;2023-12-07T11:00:06;8.50;;;5.00;;
44985;SDS011;30721;49.380;7.736;2023-12-07T11:02:33;8.27;;;4.88;;
44985;SDS011;30721;49.380;7.736;2023-12-07T11:04:59;7.72;;;5.43;;
44985;SDS011;30721;49.380;7.736;2023-12-07T11:07:25;10.35;;;4.60;;
44985;SDS011;30721;49.380;7.736;2023-12-07T11:09:57;10.90;;;4.97;;
44985;SDS011;30721;49.380;7.736;2023-12-07T11:12:36;7.78;;;4.05;;
44985;SDS011;30721;49.380;7.736;2023-12-07T11:15:07;7.38;;;4.72;;
44985;SDS011;30721;49.380;7.736;2023-12-07T11:17:52;6.63;;;4.20;;
44985;SDS011;30721;49.380;7.736;2023-12-07T11:20:19;6.15;;;4.15;;
44985;SDS011;30721;49.380;7.736;2023-12-07T11:22:46;5.93;;;3.45;;
44985;SDS011;30721;49.380;7.736;2023-12-07T11:25:14;5.35;;;3.58;;
44985;SDS011;30721;49.380;7.736;2023-12-07T11:27:39;6.28;;;4.18;;
44985;SDS011;30721;49.380;7.736;2023-12-07T11:30:06;5.28;;;3.80;;
44985;SDS011;30721;49.380;7.736;2023-12-07T11:32:32;6.57;;;4.35;;
44985;SDS011;30721;49.380;7.736;2023-12-07T11:35:11;5.60;;;3.58;;
44985;SDS011;30721;49.380;7.736;2023-12-07T11:40:44;6.68;;;3.78;;
44985;SDS011;30721;49.380;7.736;2023-12-07T11:46:09;5.50;;;3.60;;
44985;SDS011;30721;49.380;7.736;2023-12-07T11:48:35;5.20;;;3.08;;
44985;SDS011;30721;49.380;7.736;2023-12-07T11:51:04;4.60;;;3.03;;
44985;SDS011;30721;49.380;7.736;2023-12-07T11:53:33;6.88;;;3.03;;
44985;SDS011;30721;49.380;7.736;2023-12-07T11:56:00;4.97;;;2.80;;
44985;SDS011;30721;49.380;7.736;2023-12-07T11:58:35;3.97;;;2.92;;
44985;SDS011;30721;49.380;7.736;2023-12-07T12:01:01;5.28;;;3.65;;
44985;SDS011;30721;49.380;7.736;2023-12-07T12:03:28;3.80;;;3.08;;
44985;SDS011;30721;49.380;7.736;2023-12-07T12:05:54;5.30;;;2.97;;
44985;SDS011;30721;49.380;7.736;2023-12-07T12:08:20;5.45;;;3.00;;
44985;SDS011;30721;49.380;7.736;2023-12-07T12:10:46;4.00;;;2.17;;
44985;SDS011;30721;49.380;7.736;2023-12-07T12:13:14;2.85;;;2.10;;
44985;SDS011;30721;49.380;7.736;2023-12-07T12:15:40;3.50;;;2.20;;
44985;SDS011;30721;49.380;7.736;2023-12-07T12:18:06;3.55;;;2.20;;
44985;SDS011;30721;49.380;7.736;2023-12-07T12:20:33;3.10;;;2.45;;
44985;SDS011;30721;49.380;7.736;2023-12-07T12:22:58;4.53;;;2.50;;
44985;SDS011;30721;49.380;7.736;2023-12-07T12:25:25;4.80;;;2.70;;
44985;SDS011;30721;49.380;7.736;2023-12-07T12:27:58;3.70;;;2.47;;
44985;SDS011;30721;49.380;7.736;2023-12-07T12:30:26;4.35;;;2.20;;
44985;SDS011;30721;49.380;7.736;2023-12-07T12:32:52;3.58;;;2.22;;
44985;SDS011;30721;49.380;7.736;2023-12-07T12:35:17;5.07;;;2.58;;
44985;SDS011;30721;49.380;7.736;2023-12-07T12:37:43;4.10;;;2.83;;
44985;SDS011;30721;49.380;7.736;2023-12-07T12:40:13;3.67;;;2.03;;
44985;SDS011;30721;49.380;7.736;2023-12-07T12:42:47;4.13;;;2.38;;
44985;SDS011;30721;49.380;7.736;2023-12-07T12:45:14;3.92;;;2.38;;
44985;SDS011;30721;49.380;7.736;2023-12-07T12:47:40;3.75;;;1.80;;
44985;SDS011;30721;49.380;7.736;2023-12-07T12:50:06;2.42;;;1.80;;
44985;SDS011;30721;49.380;7.736;2023-12-07T12:52:32;3.33;;;1.70;;
44985;SDS011;30721;49.380;7.736;2023-12-07T12:54:58;2.20;;;1.73;;
44985;SDS011;30721;49.380;7.736;2023-12-07T12:57:24;3.42;;;2.03;;
44985;SDS011;30721;49.380;7.736;2023-12-07T12:59:50;2.53;;;1.60;;
44985;SDS011;30721;49.380;7.736;2023-12-07T13:02:16;2.65;;;1.80;;
44985;SDS011;30721;49.380;7.736;2023-12-07T13:04:41;2.25;;;1.52;;
44985;SDS011;30721;49.380;7.736;2023-12-07T13:07:06;2.78;;;1.95;;
44985;SDS011;30721;49.380;7.736;2023-12-07T13:09:32;2.63;;;1.77;;
44985;SDS011;30721;49.380;7.736;2023-12-07T13:11:57;3.03;;;1.63;;
44985;SDS011;30721;49.380;7.736;2023-12-07T13:14:23;2.42;;;2.03;;
44985;SDS011;30721;49.380;7.736;2023-12-07T13:16:49;6.32;;;2.13;;
44985;SDS011;30721;49.380;7.736;2023-12-07T13:19:15;2.65;;;1.85;;
44985;SDS011;30721;49.380;7.736;2023-12-07T13:21:40;3.63;;;1.92;;
44985;SDS011;30721;49.380;7.736;2023-12-07T13:24:05;2.20;;;1.55;;
44985;SDS011;30721;49.380;7.736;2023-12-07T13:26:32;3.05;;;1.83;;
44985;SDS011;30721;49.380;7.736;2023-12-07T13:28:58;3.08;;;1.90;;
44985;SDS011;30721;49.380;7.736;2023-12-07T13:31:24;2.22;;;1.55;;
44985;SDS011;30721;49.380;7.736;2023-12-07T13:33:50;3.28;;;1.35;;
44985;SDS011;30721;49.380;7.736;2023-12-07T13:36:15;2.75;;;1.75;;
44985;SDS011;30721;49.380;7.736;2023-12-07T13:38:43;4.80;;;1.83;;
44985;SDS011;30721;49.380;7.736;2023-12-07T13:41:09;2.85;;;1.20;;
44985;SDS011;30721;49.380;7.736;2023-12-07T13:43:34;2.45;;;1.63;;
44985;SDS011;30721;49.380;7.736;2023-12-07T13:46:00;1.60;;;1.38;;
44985;SDS011;30721;49.380;7.736;2023-12-07T13:48:25;3.00;;;2.10;;
44985;SDS011;30721;49.380;7.736;2023-12-07T13:50:51;2.90;;;1.88;;
44985;SDS011;30721;49.380;7.736;2023-12-07T13:53:17;2.35;;;1.70;;
44985;SDS011;30721;49.380;7.736;2023-12-07T13:55:44;2.40;;;1.80;;
44985;SDS011;30721;49.380;7.736;2023-12-07T13:58:10;2.20;;;2.00;;
44985;SDS011;30721;49.380;7.736;2023-12-07T14:00:37;1.90;;;1.77;;
44985;SDS011;30721;49.380;7.736;2023-12-07T14:03:03;2.42;;;2.03;;
44985;SDS011;30721;49.380;7.736;2023-12-07T14:05:31;3.33;;;2.50;;
44985;SDS011;30721;49.380;7.736;2023-12-07T14:07:57;1.90;;;1.70;;
44985;SDS011;30721;49.380;7.736;2023-12-07T14:10:22;2.90;;;2.00;;
44985;SDS011;30721;49.380;7.736;2023-12-07T14:12:48;4.05;;;2.75;;
44985;SDS011;30721;49.380;7.736;2023-12-07T14:15:13;3.50;;;2.30;;
44985;SDS011;30721;49.380;7.736;2023-12-07T14:17:39;3.85;;;2.05;;
44985;SDS011;30721;49.380;7.736;2023-12-07T14:20:04;3.45;;;2.00;;
44985;SDS011;30721;49.380;7.736;2023-12-07T14:22:32;5.95;;;2.20;;
44985;SDS011;30721;49.380;7.736;2023-12-07T14:24:57;4.40;;;2.25;;
44985;SDS011;30721;49.380;7.736;2023-12-07T14:27:22;4.35;;;2.20;;
44985;SDS011;30721;49.380;7.736;2023-12-07T14:29:48;3.53;;;2.20;;
44985;SDS011;30721;49.380;7.736;2023-12-07T14:32:13;3.08;;;2.40;;
44985;SDS011;30721;49.380;7.736;2023-12-07T14:34:39;4.45;;;2.42;;
44985;SDS011;30721;49.380;7.736;2023-12-07T14:37:04;4.43;;;2.80;;
44985;SDS011;30721;49.380;7.736;2023-12-07T14:39:30;5.53;;;2.85;;
44985;SDS011;30721;49.380;7.736;2023-12-07T14:41:56;5.20;;;3.22;;
44985;SDS011;30721;49.380;7.736;2023-12-07T14:44:22;4.22;;;2.63;;